createdAt,value
2023-05-16T00:00:06.944Z,0.00
2023-05-16T00:01:06.913Z,0.00
2023-05-16T00:02:06.320Z,0.00
2023-05-16T00:03:06.986Z,0.00
2023-05-16T00:04:07.026Z,0.00
2023-05-16T00:05:06.855Z,0.00
2023-05-16T00:06:06.869Z,0.00
2023-05-16T00:07:06.169Z,0.00
2023-05-16T00:08:06.854Z,0.00
2023-05-16T00:09:06.807Z,0.00
2023-05-16T00:10:06.832Z,0.00
2023-05-16T00:11:06.802Z,0.00
2023-05-16T00:12:06.109Z,0.00
2023-05-16T00:13:06.775Z,0.00
2023-05-16T00:14:06.114Z,0.00
2023-05-16T00:15:06.758Z,0.00
2023-05-16T00:16:06.850Z,0.00
2023-05-16T00:17:06.937Z,0.00
2023-05-16T00:18:06.095Z,0.00
2023-05-16T00:19:06.080Z,0.00
2023-05-16T00:20:06.011Z,0.00
2023-05-16T00:21:06.696Z,0.00
2023-05-16T00:22:06.745Z,0.00
2023-05-16T00:23:06.654Z,0.00
2023-05-16T00:24:06.661Z,0.00
2023-05-16T00:25:05.960Z,0.00
2023-05-16T00:26:05.947Z,0.00
2023-05-16T00:27:06.622Z,0.00
2023-05-16T00:28:06.602Z,0.00
2023-05-16T00:29:05.922Z,0.00
2023-05-16T00:30:05.915Z,0.00
2023-05-16T00:31:05.896Z,0.00
2023-05-16T00:32:06.615Z,0.00
2023-05-16T00:33:06.597Z,0.00
2023-05-16T00:34:06.618Z,0.00
2023-05-16T00:35:05.856Z,0.00
2023-05-16T00:36:06.535Z,0.00
2023-05-16T00:37:06.501Z,0.00
2023-05-16T00:38:05.825Z,0.00
2023-05-16T00:39:06.494Z,0.00
2023-05-16T00:40:06.541Z,0.00
2023-05-16T00:41:06.485Z,0.00
2023-05-16T00:42:06.464Z,0.00
2023-05-16T00:43:05.771Z,0.00
2023-05-16T00:44:06.451Z,0.00
2023-05-16T00:45:06.425Z,0.00
2023-05-16T00:46:06.497Z,0.00
2023-05-16T00:47:06.397Z,0.00
2023-05-16T00:48:05.781Z,0.00
2023-05-16T00:49:06.420Z,0.00
2023-05-16T00:50:05.693Z,0.00
2023-05-16T00:51:06.352Z,0.00
2023-05-16T00:52:05.689Z,0.00
2023-05-16T00:53:06.348Z,0.00
2023-05-16T00:54:05.677Z,0.00
2023-05-16T00:55:06.336Z,0.00
2023-05-16T00:56:06.324Z,0.00
2023-05-16T00:57:06.303Z,0.00
2023-05-16T00:58:05.606Z,0.00
2023-05-16T00:59:06.299Z,0.00
2023-05-16T01:00:05.604Z,0.00
2023-05-16T01:01:06.298Z,0.00
2023-05-16T01:02:06.258Z,0.00
2023-05-16T01:03:05.699Z,0.00
2023-05-16T01:04:06.380Z,0.00
2023-05-16T01:05:05.558Z,0.00
2023-05-16T01:06:06.204Z,0.00
2023-05-16T01:07:06.205Z,0.00
2023-05-16T01:08:06.189Z,0.00
2023-05-16T01:09:05.477Z,0.00
2023-05-16T01:10:06.146Z,0.00
2023-05-16T01:11:05.461Z,0.00
2023-05-16T01:12:06.150Z,0.00
2023-05-16T01:13:05.440Z,0.00
2023-05-16T01:14:05.451Z,0.00
2023-05-16T01:15:06.086Z,0.00
2023-05-16T01:16:05.466Z,0.00
2023-05-16T01:17:06.094Z,0.00
2023-05-16T01:18:06.130Z,0.00
2023-05-16T01:19:06.135Z,0.00
2023-05-16T01:20:06.051Z,0.00
2023-05-16T01:21:05.355Z,0.00
2023-05-16T01:22:06.034Z,0.00
2023-05-16T01:23:06.016Z,0.00
2023-05-16T01:24:05.381Z,0.00
2023-05-16T01:25:06.008Z,0.00
2023-05-16T01:26:05.986Z,0.00
2023-05-16T01:27:05.290Z,0.00
2023-05-16T01:28:05.306Z,0.00
2023-05-16T01:29:05.935Z,0.00
2023-05-16T01:30:05.312Z,0.00
2023-05-16T01:31:05.945Z,0.00
2023-05-16T01:32:05.962Z,0.00
2023-05-16T01:33:05.320Z,0.00
2023-05-16T01:34:05.901Z,0.00
2023-05-16T01:35:05.193Z,0.00
2023-05-16T01:36:05.206Z,0.00
2023-05-16T01:37:05.864Z,0.00
2023-05-16T01:38:05.835Z,0.00
2023-05-16T01:39:05.849Z,0.00
2023-05-16T01:40:05.161Z,0.00
2023-05-16T01:41:05.823Z,0.00
2023-05-16T01:42:05.800Z,0.00
2023-05-16T01:43:05.149Z,0.00
2023-05-16T01:44:05.115Z,0.00
2023-05-16T01:45:05.083Z,0.00
2023-05-16T01:46:05.775Z,0.00
2023-05-16T01:47:05.970Z,0.00
2023-05-16T01:48:05.773Z,0.00
2023-05-16T01:49:05.032Z,0.00
2023-05-16T01:50:05.036Z,0.00
2023-05-16T01:51:05.762Z,0.00
2023-05-16T01:52:05.695Z,0.00
2023-05-16T01:53:05.698Z,0.00
2023-05-16T01:54:04.992Z,0.00
2023-05-16T01:55:05.678Z,0.00
2023-05-16T01:56:04.998Z,0.00
2023-05-16T01:57:04.975Z,0.00
2023-05-16T01:58:04.951Z,0.00
2023-05-16T01:59:04.931Z,0.00
2023-05-16T02:00:05.623Z,0.00
2023-05-16T02:01:05.671Z,0.00
2023-05-16T02:02:04.936Z,0.00
2023-05-16T02:03:05.620Z,0.00
2023-05-16T02:04:05.660Z,0.00
2023-05-16T02:05:05.622Z,0.00
2023-05-16T02:06:05.540Z,0.00
2023-05-16T02:07:04.933Z,0.00
2023-05-16T02:08:04.844Z,0.00
2023-05-16T02:09:04.840Z,0.00
2023-05-16T02:10:05.493Z,0.00
2023-05-16T02:11:05.483Z,0.00
2023-05-16T02:12:05.515Z,0.00
2023-05-16T02:13:04.786Z,0.00
2023-05-16T02:14:05.482Z,0.00
2023-05-16T02:15:05.446Z,0.00
2023-05-16T02:16:05.501Z,0.00
2023-05-16T02:17:05.464Z,0.00
2023-05-16T02:18:05.562Z,0.00
2023-05-16T02:19:04.771Z,0.00
2023-05-16T02:20:05.386Z,0.00
2023-05-16T02:21:04.733Z,0.00
2023-05-16T02:22:05.391Z,0.00
2023-05-16T02:23:05.383Z,0.00
2023-05-16T02:24:04.677Z,0.00
2023-05-16T02:25:04.701Z,0.00
2023-05-16T02:26:05.337Z,0.00
2023-05-16T02:27:05.324Z,0.00
2023-05-16T02:28:05.318Z,0.00
2023-05-16T02:29:04.644Z,0.00
2023-05-16T02:30:04.599Z,0.00
2023-05-16T02:31:04.673Z,0.00
2023-05-16T02:32:05.309Z,0.00
2023-05-16T02:33:05.305Z,0.00
2023-05-16T02:34:05.240Z,0.00
2023-05-16T02:35:05.255Z,0.00
2023-05-16T02:36:04.549Z,0.00
2023-05-16T02:37:05.222Z,0.00
2023-05-16T02:38:05.188Z,0.00
2023-05-16T02:39:05.176Z,0.00
2023-05-16T02:40:04.500Z,0.00
2023-05-16T02:41:05.180Z,0.00
2023-05-16T02:42:04.469Z,0.00
2023-05-16T02:43:04.468Z,0.00
2023-05-16T02:44:05.148Z,0.00
2023-05-16T02:45:04.456Z,0.00
2023-05-16T02:46:04.467Z,0.00
2023-05-16T02:47:05.113Z,0.00
2023-05-16T02:48:04.458Z,0.00
2023-05-16T02:49:05.100Z,0.00
2023-05-16T02:50:05.080Z,0.00
2023-05-16T02:51:05.073Z,0.00
2023-05-16T02:52:05.037Z,0.00
2023-05-16T02:53:05.025Z,0.00
2023-05-16T02:54:04.355Z,0.00
2023-05-16T02:55:20.974Z,0.00
2023-05-16T02:56:06.008Z,0.00
2023-05-16T02:57:04.985Z,0.00
2023-05-16T02:58:04.996Z,4.00
2023-05-16T02:59:04.288Z,4.00
2023-05-16T03:00:04.298Z,0.00
2023-05-16T03:01:05.025Z,0.00
2023-05-16T03:02:05.093Z,4.00
2023-05-16T03:03:05.018Z,4.00
2023-05-16T03:04:05.092Z,4.00
2023-05-16T03:05:04.238Z,8.00
2023-05-16T03:06:04.227Z,4.00
2023-05-16T03:07:04.215Z,8.00
2023-05-16T03:08:04.235Z,8.00
2023-05-16T03:09:04.870Z,8.00
2023-05-16T03:10:04.935Z,12.00
2023-05-16T03:11:04.837Z,12.00
2023-05-16T03:12:04.507Z,12.00
2023-05-16T03:13:04.148Z,12.00
2023-05-16T03:14:04.826Z,16.00
2023-05-16T03:15:04.139Z,20.00
2023-05-16T03:16:04.845Z,20.00
2023-05-16T03:17:04.119Z,24.00
2023-05-16T03:18:04.870Z,28.00
2023-05-16T03:19:04.147Z,32.00
2023-05-16T03:20:04.093Z,36.00
2023-05-16T03:21:04.733Z,36.00
2023-05-16T03:22:04.097Z,44.00
2023-05-16T03:23:04.065Z,48.00
2023-05-16T03:24:04.076Z,56.00
2023-05-16T03:25:04.059Z,56.00
2023-05-16T03:26:04.708Z,64.00
2023-05-16T03:27:04.062Z,72.00
2023-05-16T03:28:04.706Z,76.00
2023-05-16T03:29:04.036Z,84.00
2023-05-16T03:30:04.005Z,92.00
2023-05-16T03:31:04.766Z,104.00
2023-05-16T03:32:04.667Z,112.00
2023-05-16T03:33:04.668Z,116.00
2023-05-16T03:34:04.602Z,128.00
2023-05-16T03:35:04.573Z,136.00
2023-05-16T03:36:04.579Z,148.00
2023-05-16T03:37:04.587Z,160.00
2023-05-16T03:38:04.568Z,172.00
2023-05-16T03:39:04.540Z,188.00
2023-05-16T03:40:03.853Z,200.00
2023-05-16T03:41:04.526Z,216.00
2023-05-16T03:42:04.524Z,236.00
2023-05-16T03:43:04.518Z,256.00
2023-05-16T03:44:04.475Z,272.00
2023-05-16T03:45:04.478Z,292.00
2023-05-16T03:46:03.831Z,308.00
2023-05-16T03:47:04.457Z,328.00
2023-05-16T03:48:04.477Z,348.00
2023-05-16T03:49:03.776Z,368.00
2023-05-16T03:50:04.445Z,384.00
2023-05-16T03:51:04.421Z,408.00
2023-05-16T03:52:04.490Z,432.00
2023-05-16T03:53:03.774Z,452.00
2023-05-16T03:54:04.394Z,476.00
2023-05-16T03:55:04.366Z,500.00
2023-05-16T03:56:03.729Z,524.00
2023-05-16T03:57:04.366Z,548.00
2023-05-16T03:58:03.693Z,576.00
2023-05-16T03:59:03.738Z,608.00
2023-05-16T04:00:03.667Z,640.00
2023-05-16T04:01:03.641Z,672.00
2023-05-16T04:02:04.348Z,708.00
2023-05-16T04:03:04.307Z,744.00
2023-05-16T04:04:03.601Z,780.00
2023-05-16T04:05:04.262Z,812.00
2023-05-16T04:06:04.324Z,848.00
2023-05-16T04:07:04.219Z,884.00
2023-05-16T04:08:03.601Z,920.00
2023-05-16T04:09:03.543Z,956.00
2023-05-16T04:10:04.211Z,1000.00
2023-05-16T04:11:04.199Z,1056.00
2023-05-16T04:12:04.957Z,1132.00
2023-05-16T04:13:04.174Z,1232.00
2023-05-16T04:14:04.458Z,1368.00
2023-05-16T04:15:04.411Z,1464.00
2023-05-16T04:16:03.474Z,1568.00
2023-05-16T04:17:04.264Z,1732.00
2023-05-16T04:18:04.301Z,1864.00
2023-05-16T04:19:04.355Z,1952.00
2023-05-16T04:20:03.415Z,2072.00
2023-05-16T04:21:03.413Z,2264.00
2023-05-16T04:22:04.103Z,2360.00
2023-05-16T04:23:03.380Z,2252.00
2023-05-16T04:24:04.062Z,2244.00
2023-05-16T04:25:04.022Z,2304.00
2023-05-16T04:26:04.011Z,2608.00
2023-05-16T04:27:03.334Z,2944.00
2023-05-16T04:28:03.320Z,3128.00
2023-05-16T04:29:04.002Z,3336.00
2023-05-16T04:30:03.971Z,3784.00
2023-05-16T04:31:03.420Z,3956.00
2023-05-16T04:32:04.022Z,4152.00
2023-05-16T04:33:03.326Z,4424.00
2023-05-16T04:34:05.213Z,4776.00
2023-05-16T04:35:03.917Z,4976.00
2023-05-16T04:36:03.932Z,4976.00
2023-05-16T04:37:03.282Z,4512.00
2023-05-16T04:38:03.903Z,4860.00
2023-05-16T04:39:04.205Z,5888.00
2023-05-16T04:40:05.174Z,6412.00
2023-05-16T04:41:03.906Z,7012.00
2023-05-16T04:42:04.161Z,6992.00
2023-05-16T04:43:05.116Z,9132.00
2023-05-16T04:44:04.177Z,11936.00
2023-05-16T04:45:04.128Z,12928.00
2023-05-16T04:46:03.850Z,13440.00
2023-05-16T04:47:04.117Z,12992.00
2023-05-16T04:48:04.164Z,13056.00
2023-05-16T04:49:04.088Z,12384.00
2023-05-16T04:50:05.039Z,11552.00
2023-05-16T04:51:04.022Z,12384.00
2023-05-16T04:52:04.012Z,12256.00
2023-05-16T04:53:03.728Z,11840.00
2023-05-16T04:54:03.710Z,12064.00
2023-05-16T04:55:04.005Z,12064.00
2023-05-16T04:56:03.968Z,11392.00
2023-05-16T04:57:03.984Z,11080.00
2023-05-16T04:58:03.042Z,12064.00
2023-05-16T04:59:03.960Z,12704.00
2023-05-16T05:00:03.933Z,12768.00
2023-05-16T05:01:03.667Z,12000.00
2023-05-16T05:02:04.001Z,11132.00
2023-05-16T05:03:03.630Z,11732.00
2023-05-16T05:04:03.887Z,12640.00
2023-05-16T05:05:03.967Z,12172.00
2023-05-16T05:06:03.636Z,11712.00
2023-05-16T05:07:03.574Z,11096.00
2023-05-16T05:08:03.559Z,10520.00
2023-05-16T05:09:03.833Z,10780.00
2023-05-16T05:10:03.827Z,11336.00
2023-05-16T05:11:03.546Z,11660.00
2023-05-16T05:12:03.512Z,11820.00
2023-05-16T05:13:03.524Z,11688.00
2023-05-16T05:14:03.516Z,9432.00
2023-05-16T05:15:03.509Z,11396.00
2023-05-16T05:16:03.761Z,11560.00
2023-05-16T05:17:03.831Z,11844.00
2023-05-16T05:18:03.641Z,11872.00
2023-05-16T05:19:02.906Z,11972.00
2023-05-16T05:20:03.504Z,12284.00
2023-05-16T05:21:03.717Z,12560.00
2023-05-16T05:22:03.728Z,12880.00
2023-05-16T05:23:03.412Z,12864.00
2023-05-16T05:24:03.395Z,12940.00
2023-05-16T05:25:03.675Z,13176.00
2023-05-16T05:26:03.668Z,13464.00
2023-05-16T05:27:03.635Z,13068.00
2023-05-16T05:28:03.356Z,11904.00
2023-05-16T05:29:05.765Z,12024.00
2023-05-16T05:30:04.652Z,12648.00
2023-05-16T05:31:03.306Z,13244.00
2023-05-16T05:32:03.723Z,13644.00
2023-05-16T05:33:03.624Z,13516.00
2023-05-16T05:34:03.285Z,13432.00
2023-05-16T05:35:04.567Z,14016.00
2023-05-16T05:36:04.185Z,14784.00
2023-05-16T05:37:03.521Z,14656.00
2023-05-16T05:38:03.260Z,13632.00
2023-05-16T05:39:03.502Z,14304.00
2023-05-16T05:40:03.223Z,14976.00
2023-05-16T05:41:03.215Z,14976.00
2023-05-16T05:42:03.460Z,15104.00
2023-05-16T05:43:03.441Z,15392.00
2023-05-16T05:44:03.469Z,15968.00
2023-05-16T05:45:03.454Z,17216.00
2023-05-16T05:46:03.214Z,17024.00
2023-05-16T05:47:03.146Z,16320.00
2023-05-16T05:48:03.241Z,15520.00
2023-05-16T05:49:03.404Z,15200.00
2023-05-16T05:50:03.118Z,15200.00
2023-05-16T05:51:03.380Z,15488.00
2023-05-16T05:52:03.354Z,16480.00
2023-05-16T05:53:03.086Z,19616.00
2023-05-16T05:54:03.353Z,18592.00
2023-05-16T05:55:04.327Z,16800.00
2023-05-16T05:56:03.052Z,17984.00
2023-05-16T05:57:04.337Z,15744.00
2023-05-16T05:58:06.918Z,18560.00
2023-05-16T05:59:03.323Z,21024.00
2023-05-16T06:00:03.019Z,24704.00
2023-05-16T06:01:02.328Z,26048.00
2023-05-16T06:02:02.364Z,25056.00
2023-05-16T06:03:02.323Z,23392.00
2023-05-16T06:04:02.964Z,22624.00
2023-05-16T06:05:03.260Z,23712.00
2023-05-16T06:06:03.016Z,30144.00
2023-05-16T06:07:02.935Z,32704.00
2023-05-16T06:08:02.257Z,28736.00
2023-05-16T06:09:02.915Z,29504.00
2023-05-16T06:10:04.696Z,9048.00
2023-05-16T06:11:02.891Z,16960.00
2023-05-16T06:12:02.869Z,17760.00
2023-05-16T06:13:03.153Z,17056.00
2023-05-16T06:14:04.115Z,16448.00
2023-05-16T06:15:03.107Z,16160.00
2023-05-16T06:16:02.837Z,14976.00
2023-05-16T06:17:03.186Z,15072.00
2023-05-16T06:18:02.916Z,14336.00
2023-05-16T06:19:02.848Z,14088.00
2023-05-16T06:20:03.061Z,14132.00
2023-05-16T06:21:03.046Z,15040.00
2023-05-16T06:22:03.049Z,15488.00
2023-05-16T06:23:03.028Z,13192.00
2023-05-16T06:24:03.008Z,15392.00
2023-05-16T06:25:03.016Z,15936.00
2023-05-16T06:26:02.709Z,12280.00
2023-05-16T06:27:02.697Z,14284.00
2023-05-16T06:28:02.708Z,15168.00
2023-05-16T06:29:02.693Z,16096.00
2023-05-16T06:30:02.942Z,17376.00
2023-05-16T06:31:02.703Z,16192.00
2023-05-16T06:32:03.050Z,24352.00
2023-05-16T06:33:03.505Z,14992.00
2023-05-16T06:34:02.917Z,6876.00
2023-05-16T06:35:02.865Z,8352.00
2023-05-16T06:36:02.904Z,5440.00
2023-05-16T06:37:01.927Z,27424.00
2023-05-16T06:38:01.943Z,27712.00
2023-05-16T06:39:02.893Z,6236.00
2023-05-16T06:40:01.917Z,6900.00
2023-05-16T06:41:02.837Z,10216.00
2023-05-16T06:42:02.561Z,32448.00
2023-05-16T06:43:02.546Z,5512.00
2023-05-16T06:44:02.542Z,13148.00
2023-05-16T06:45:02.515Z,7776.00
2023-05-16T06:46:02.568Z,32544.00
2023-05-16T06:47:02.621Z,7052.00
2023-05-16T06:48:02.530Z,33056.00
2023-05-16T06:49:02.482Z,6136.00
2023-05-16T06:50:01.833Z,9068.00
2023-05-16T06:51:01.780Z,9804.00
2023-05-16T06:52:02.467Z,6772.00
2023-05-16T06:53:02.438Z,13056.00
2023-05-16T06:54:04.145Z,24608.00
2023-05-16T06:55:02.406Z,30944.00
2023-05-16T06:56:02.399Z,38816.00
2023-05-16T06:57:02.398Z,7208.00
2023-05-16T06:58:02.393Z,6140.00
2023-05-16T06:59:02.360Z,7580.00
2023-05-16T07:00:04.146Z,11332.00
2023-05-16T07:01:02.385Z,6992.00
2023-05-16T07:02:02.344Z,6276.00
2023-05-16T07:03:01.807Z,6108.00
2023-05-16T07:04:01.882Z,9368.00
2023-05-16T07:05:02.304Z,5568.00
2023-05-16T07:06:02.309Z,5164.00
2023-05-16T07:07:02.283Z,4764.00
2023-05-16T07:08:01.612Z,4072.00
2023-05-16T07:09:02.273Z,4096.00
2023-05-16T07:10:02.255Z,4264.00
2023-05-16T07:11:02.244Z,4600.00
2023-05-16T07:12:01.548Z,5572.00
2023-05-16T07:13:02.214Z,5700.00
2023-05-16T07:14:01.527Z,40416.00
2023-05-16T07:15:02.193Z,39840.00
2023-05-16T07:16:02.199Z,41376.00
2023-05-16T07:17:01.614Z,44864.00
2023-05-16T07:18:01.576Z,6844.00
2023-05-16T07:19:01.551Z,40256.00
2023-05-16T07:20:04.369Z,13040.00
2023-05-16T07:21:02.129Z,43232.00
2023-05-16T07:22:02.108Z,43072.00
2023-05-16T07:23:02.115Z,40896.00
2023-05-16T07:24:01.466Z,41248.00
2023-05-16T07:25:02.095Z,45120.00
2023-05-16T07:26:01.411Z,29312.00
2023-05-16T07:27:02.049Z,9316.00
2023-05-16T07:28:02.054Z,8096.00
2023-05-16T07:29:02.048Z,26688.00
2023-05-16T07:30:01.358Z,23712.00
2023-05-16T07:31:02.031Z,6220.00
2023-05-16T07:32:02.057Z,5864.00
2023-05-16T07:33:02.065Z,9336.00
2023-05-16T07:34:02.000Z,24864.00
2023-05-16T07:35:01.996Z,10376.00
2023-05-16T07:36:15.380Z,5596.00
2023-05-16T07:37:02.959Z,45120.00
2023-05-16T07:38:01.253Z,47808.00
2023-05-16T07:39:01.275Z,49536.00
2023-05-16T07:40:01.262Z,49344.00
2023-05-16T07:41:01.262Z,51616.00
2023-05-16T07:42:05.158Z,52032.00
2023-05-16T07:43:01.211Z,43456.00
2023-05-16T07:44:01.875Z,50208.00
2023-05-16T07:45:01.848Z,18080.00
2023-05-16T07:46:01.227Z,52448.00
2023-05-16T07:47:01.843Z,51328.00
2023-05-16T07:48:01.884Z,51168.00
2023-05-16T07:49:01.820Z,52960.00
2023-05-16T07:50:01.163Z,52288.00
2023-05-16T07:51:01.805Z,50560.00
2023-05-16T07:52:01.124Z,52448.00
2023-05-16T07:53:01.105Z,20160.00
2023-05-16T07:54:01.753Z,9080.00
2023-05-16T07:55:01.742Z,6400.00
2023-05-16T07:56:01.754Z,6096.00
2023-05-16T07:57:01.730Z,5844.00
2023-05-16T07:58:01.725Z,5412.00
2023-05-16T07:59:01.105Z,5192.00
2023-05-16T08:00:01.033Z,5108.00
2023-05-16T08:01:01.695Z,5880.00
2023-05-16T08:02:01.798Z,6196.00
2023-05-16T08:03:01.755Z,9068.00
2023-05-16T08:04:01.695Z,48192.00
2023-05-16T08:05:01.694Z,26848.00
2023-05-16T08:06:01.012Z,5588.00
2023-05-16T08:07:00.950Z,6756.00
2023-05-16T08:08:00.972Z,5972.00
2023-05-16T08:09:01.583Z,4720.00
2023-05-16T08:10:01.590Z,5580.00
2023-05-16T08:11:01.584Z,7892.00
2023-05-16T08:12:00.893Z,7876.00
2023-05-16T08:13:00.904Z,61536.00
2023-05-16T08:14:01.553Z,61536.00
2023-05-16T08:15:01.537Z,61376.00
2023-05-16T08:16:01.553Z,44160.00
2023-05-16T08:17:00.908Z,7084.00
2023-05-16T08:18:01.581Z,64608.00
2023-05-16T08:19:01.611Z,62240.00
2023-05-16T08:20:00.806Z,7504.00
2023-05-16T08:21:01.472Z,4936.00
2023-05-16T08:22:01.458Z,4356.00
2023-05-16T08:23:01.452Z,4820.00
2023-05-16T08:24:00.753Z,5024.00
2023-05-16T08:25:01.436Z,10520.00
2023-05-16T08:26:01.423Z,22752.00
2023-05-16T08:27:01.418Z,13376.00
2023-05-16T08:28:01.411Z,12012.00
2023-05-16T08:29:00.733Z,11616.00
2023-05-16T08:30:01.395Z,11692.00
2023-05-16T08:31:00.753Z,11576.00
2023-05-16T08:32:00.728Z,10992.00
2023-05-16T08:33:01.407Z,10976.00
2023-05-16T08:34:01.334Z,10052.00
2023-05-16T08:35:00.653Z,8932.00
2023-05-16T08:36:00.649Z,7716.00
2023-05-16T08:37:01.301Z,9332.00
2023-05-16T08:38:01.302Z,9436.00
2023-05-16T08:39:01.291Z,6216.00
2023-05-16T08:40:00.598Z,8092.00
2023-05-16T08:41:01.240Z,6916.00
2023-05-16T08:42:00.572Z,6852.00
2023-05-16T08:43:01.254Z,7944.00
2023-05-16T08:44:01.226Z,8580.00
2023-05-16T08:45:01.198Z,9148.00
2023-05-16T08:46:00.547Z,8308.00
2023-05-16T08:47:01.229Z,7644.00
2023-05-16T08:48:01.229Z,7228.00
2023-05-16T08:49:01.188Z,6932.00
2023-05-16T08:50:00.527Z,6680.00
2023-05-16T08:51:01.154Z,6528.00
2023-05-16T08:52:01.174Z,6812.00
2023-05-16T08:53:01.135Z,7044.00
2023-05-16T08:54:01.141Z,7140.00
2023-05-16T08:55:09.933Z,5164.00
2023-05-16T08:56:01.411Z,8116.00
2023-05-16T08:57:01.087Z,8416.00
2023-05-16T08:58:01.080Z,7780.00
2023-05-16T08:59:00.417Z,6120.00
2023-05-16T09:00:01.076Z,8496.00
2023-05-16T09:01:01.061Z,10140.00
2023-05-16T09:02:01.046Z,9100.00
2023-05-16T09:03:01.104Z,7080.00
2023-05-16T09:04:00.385Z,6100.00
2023-05-16T09:05:01.003Z,7636.00
2023-05-16T09:06:00.993Z,9376.00
2023-05-16T09:07:00.990Z,6572.00
2023-05-16T09:08:00.980Z,6396.00
2023-05-16T09:09:00.947Z,6020.00
2023-05-16T09:10:00.273Z,5184.00
2023-05-16T09:11:00.937Z,5996.00
2023-05-16T09:12:00.938Z,6904.00
2023-05-16T09:13:00.900Z,6676.00
2023-05-16T09:14:00.272Z,6548.00
2023-05-16T09:15:00.894Z,6160.00
2023-05-16T09:16:00.280Z,7016.00
2023-05-16T09:17:00.899Z,6208.00
2023-05-16T09:18:00.598Z,4432.00
2023-05-16T09:19:01.008Z,5808.00
2023-05-16T09:20:00.154Z,6216.00
2023-05-16T09:21:00.142Z,6736.00
2023-05-16T09:22:00.795Z,7432.00
2023-05-16T09:23:00.138Z,8532.00
2023-05-16T09:24:00.798Z,7336.00
2023-05-16T09:25:00.788Z,9256.00
2023-05-16T09:26:00.775Z,6920.00
2023-05-16T09:27:00.115Z,7388.00
2023-05-16T09:28:00.756Z,6788.00
2023-05-16T09:29:00.742Z,6180.00
2023-05-16T09:30:00.077Z,5988.00
2023-05-16T09:31:00.759Z,5672.00
2023-05-16T09:32:00.046Z,6600.00
2023-05-16T09:33:00.142Z,8712.00
2023-05-16T09:34:02.460Z,6676.00
2023-05-16T09:35:00.688Z,4876.00
2023-05-16T09:36:00.681Z,5908.00
2023-05-16T09:37:00.002Z,7024.00
2023-05-16T09:37:59.967Z,6476.00
2023-05-16T09:39:00.927Z,6844.00
2023-05-16T09:40:00.622Z,7352.00
2023-05-16T09:41:00.610Z,7712.00
2023-05-16T09:42:00.595Z,7388.00
2023-05-16T09:43:00.613Z,5860.00
2023-05-16T09:43:59.903Z,4468.00
2023-05-16T09:45:01.453Z,6296.00
2023-05-16T09:46:00.552Z,7176.00
2023-05-16T09:47:00.547Z,7836.00
2023-05-16T09:48:00.569Z,5840.00
2023-05-16T09:48:59.884Z,6880.00
2023-05-16T09:49:59.839Z,6156.00
2023-05-16T09:51:02.521Z,7660.00
2023-05-16T09:52:00.498Z,9044.00
2023-05-16T09:52:59.798Z,7812.00
2023-05-16T09:54:00.627Z,6304.00
2023-05-16T09:55:00.530Z,6828.00
2023-05-16T09:55:59.764Z,7504.00
2023-05-16T09:57:02.161Z,7684.00
2023-05-16T09:58:00.433Z,7272.00
2023-05-16T09:59:00.418Z,7016.00
2023-05-16T10:00:00.392Z,7232.00
2023-05-16T10:01:00.403Z,7108.00
2023-05-16T10:01:59.748Z,7080.00
2023-05-16T10:03:01.524Z,7980.00
2023-05-16T10:04:00.501Z,6932.00
2023-05-16T10:05:04.243Z,6512.00
2023-05-16T10:05:59.635Z,7376.00
2023-05-16T10:06:59.640Z,6924.00
2023-05-16T10:07:59.648Z,6644.00
2023-05-16T10:09:01.145Z,6656.00
2023-05-16T10:10:00.302Z,6512.00
2023-05-16T10:10:59.602Z,6356.00
2023-05-16T10:14:13.648Z,6072.00
2023-05-16T10:15:11.683Z,6100.00
2023-05-16T10:16:12.450Z,6252.00
2023-05-16T10:17:12.363Z,6568.00
2023-05-16T10:18:12.392Z,6872.00
2023-05-16T10:19:12.415Z,7236.00
2023-05-16T10:20:11.640Z,7852.00
2023-05-16T10:21:12.158Z,8640.00
2023-05-16T10:22:11.616Z,9528.00
2023-05-16T10:23:12.289Z,10348.00
2023-05-16T10:24:12.287Z,9024.00
2023-05-16T10:25:12.554Z,6624.00
2023-05-16T10:26:11.673Z,6380.00
2023-05-16T10:27:12.247Z,5496.00
2023-05-16T10:28:12.522Z,3932.00
2023-05-16T10:29:12.228Z,3652.00
2023-05-16T10:30:12.225Z,3904.00
2023-05-16T10:31:12.219Z,4464.00
2023-05-16T10:32:12.311Z,4956.00
2023-05-16T10:33:11.529Z,5508.00
2023-05-16T10:34:11.498Z,6244.00
2023-05-16T10:35:12.169Z,8052.00
2023-05-16T10:36:12.154Z,24544.00
2023-05-16T10:37:11.476Z,91296.00
2023-05-16T10:38:11.451Z,95680.00
2023-05-16T10:39:11.436Z,93472.00
2023-05-16T10:40:11.426Z,75872.00
2023-05-16T10:41:11.460Z,25440.00
2023-05-16T10:42:12.067Z,4628.00
2023-05-16T10:43:12.093Z,4076.00
2023-05-16T10:44:11.372Z,3856.00
2023-05-16T10:45:12.355Z,3692.00
2023-05-16T10:46:12.222Z,3600.00
2023-05-16T10:47:11.354Z,3536.00
2023-05-16T10:48:11.439Z,3508.00
2023-05-16T10:49:12.005Z,3468.00
2023-05-16T10:50:11.352Z,3436.00
2023-05-16T10:51:11.308Z,3440.00
2023-05-16T10:52:11.970Z,3452.00
2023-05-16T10:53:11.277Z,3604.00
2023-05-16T10:54:11.971Z,5356.00
2023-05-16T10:55:11.919Z,5340.00
2023-05-16T10:56:11.275Z,5968.00
2023-05-16T10:57:11.252Z,6656.00
2023-05-16T10:58:11.915Z,6464.00
2023-05-16T10:59:11.925Z,7628.00
2023-05-16T11:00:11.881Z,7020.00
2023-05-16T11:01:11.214Z,7868.00
2023-05-16T11:02:11.915Z,7876.00
2023-05-16T11:03:15.505Z,8044.00
2023-05-16T11:04:11.846Z,7808.00
2023-05-16T11:05:13.619Z,9108.00
2023-05-16T11:06:11.834Z,8808.00
2023-05-16T11:07:11.810Z,8228.00
2023-05-16T11:08:11.114Z,7760.00
2023-05-16T11:09:11.162Z,7012.00
2023-05-16T11:10:11.114Z,6872.00
2023-05-16T11:11:11.095Z,7196.00
2023-05-16T11:12:11.762Z,7152.00
2023-05-16T11:13:11.066Z,7492.00
2023-05-16T11:14:11.723Z,7388.00
2023-05-16T11:15:13.483Z,5276.00
2023-05-16T11:16:11.716Z,5116.00
2023-05-16T11:17:12.009Z,5404.00
2023-05-16T11:18:11.773Z,5748.00
2023-05-16T11:19:11.104Z,5716.00
2023-05-16T11:20:11.677Z,5144.00
2023-05-16T11:21:11.017Z,5220.00
2023-05-16T11:22:11.658Z,4972.00
2023-05-16T11:23:11.624Z,4664.00
2023-05-16T11:24:10.976Z,4856.00
2023-05-16T11:25:11.619Z,5088.00
2023-05-16T11:26:10.954Z,4744.00
2023-05-16T11:27:10.914Z,4952.00
2023-05-16T11:28:11.571Z,5368.00
2023-05-16T11:29:11.578Z,5440.00
2023-05-16T11:30:11.588Z,5692.00
2023-05-16T11:31:10.952Z,5128.00
2023-05-16T11:32:10.872Z,5304.00
2023-05-16T11:33:11.847Z,4924.00
2023-05-16T11:34:10.826Z,5200.00
2023-05-16T11:35:15.005Z,5244.00
2023-05-16T11:36:16.277Z,5528.00
2023-05-16T11:37:11.836Z,4720.00
2023-05-16T11:38:11.464Z,4748.00
2023-05-16T11:39:11.546Z,4000.00
2023-05-16T11:40:10.788Z,3664.00
2023-05-16T11:41:11.524Z,3264.00
2023-05-16T11:42:11.428Z,3148.00
2023-05-16T11:43:10.742Z,3112.00
2023-05-16T11:44:11.691Z,3072.00
2023-05-16T11:45:13.192Z,3024.00
2023-05-16T11:46:10.768Z,2924.00
2023-05-16T11:47:12.484Z,2824.00
2023-05-16T11:48:16.558Z,2776.00
2023-05-16T11:49:13.607Z,2772.00
2023-05-16T11:50:11.357Z,2768.00
2023-05-16T11:51:11.334Z,2792.00
2023-05-16T11:52:11.330Z,2836.00
2023-05-16T11:53:11.322Z,2904.00
2023-05-16T11:54:10.640Z,3000.00
2023-05-16T11:55:28.414Z,3144.00
2023-05-16T11:56:13.548Z,3264.00
2023-05-16T11:57:11.297Z,3328.00
2023-05-16T11:58:10.578Z,3416.00
2023-05-16T11:59:11.265Z,3652.00
2023-05-16T12:00:13.098Z,4048.00
2023-05-16T12:01:10.582Z,4500.00
2023-05-16T12:02:11.230Z,5040.00
2023-05-16T12:03:11.375Z,5636.00
2023-05-16T12:04:11.377Z,6260.00
2023-05-16T12:05:13.047Z,6448.00
2023-05-16T12:06:10.493Z,6132.00
2023-05-16T12:07:10.482Z,6312.00
2023-05-16T12:08:11.160Z,5904.00
2023-05-16T12:09:10.473Z,5156.00
2023-05-16T12:10:10.471Z,4760.00
2023-05-16T12:11:10.437Z,4520.00
2023-05-16T12:12:11.122Z,4220.00
2023-05-16T12:13:11.113Z,3868.00
2023-05-16T12:14:11.081Z,3412.00
2023-05-16T12:15:11.077Z,2972.00
2023-05-16T12:16:11.126Z,2640.00
2023-05-16T12:17:10.429Z,2476.00
2023-05-16T12:18:10.540Z,2340.00
2023-05-16T12:19:10.423Z,2324.00
2023-05-16T12:20:11.070Z,2624.00
2023-05-16T12:21:10.342Z,3352.00
2023-05-16T12:22:10.323Z,4420.00